Time;durP1;ratioP1;P1;durP2;ratioP2;P2;SDS_P1;SDS_P2;PMS_P1;PMS_P2;Temp;Humidity;BMP_temperature;BMP_pressure;BME280_temperature;BME280_humidity;BME280_pressure;Samples;Min_cycle;Max_cycle;Signal;HPM_P1;HPM_P2
2023/08/19 00:02:13;;;;;;;;;19.00;16.50;;;;;27.48;63.18;100416.91;5080252;27;64380;-82
2023/08/19 00:04:38;;;;;;;;;17.50;16.25;;;;;27.47;63.11;100413.38;5093980;27;45455;-83
2023/08/19 00:07:04;;;;;;;;;18.25;17.25;;;;;27.47;62.94;100410.69;5096387;27;45402;-82
2023/08/19 00:09:31;;;;;;;;;21.50;19.25;;;;;27.45;63.27;100418.06;5081492;27;45403;-82
2023/08/19 00:11:56;;;;;;;;;17.75;15.50;;;;;27.44;62.88;100413.69;5093464;27;46023;-82
2023/08/19 00:14:23;;;;;;;;;17.25;15.75;;;;;27.42;63.00;100427.28;5078812;27;54639;-82
2023/08/19 00:16:48;;;;;;;;;21.25;18.00;;;;;27.44;62.88;100419.06;5086421;27;45382;-81
2023/08/19 00:19:14;;;;;;;;;17.75;17.75;;;;;27.41;63.08;100430.13;5078869;27;45489;-82
2023/08/19 00:21:39;;;;;;;;;19.00;15.75;;;;;27.37;63.30;100426.06;5084872;27;54962;-82
2023/08/19 00:24:05;;;;;;;;;18.00;17.25;;;;;27.37;63.29;100434.97;5087578;27;52536;-82
2023/08/19 00:26:30;;;;;;;;;20.00;19.00;;;;;27.36;63.27;100438.69;5085484;27;45288;-82
2023/08/19 00:28:55;;;;;;;;;27.75;19.75;;;;;27.38;63.06;100441.22;5087676;27;45307;-82
2023/08/19 00:31:21;;;;;;;;;22.25;17.00;;;;;27.35;63.45;100436.16;5086587;27;66018;-82
2023/08/19 00:33:46;;;;;;;;;21.75;18.75;;;;;27.35;63.46;100438.84;5094452;27;45617;-83
2023/08/19 00:36:11;;;;;;;;;22.00;19.75;;;;;27.37;63.35;100451.09;5099048;27;45430;-82
2023/08/19 00:38:37;;;;;;;;;21.25;16.50;;;;;27.37;63.11;100450.25;5095235;27;53986;-82
2023/08/19 00:41:03;;;;;;;;;20.75;19.75;;;;;27.34;63.11;100447.88;5090492;27;45364;-82
2023/08/19 00:43:28;;;;;;;;;19.75;17.75;;;;;27.34;63.23;100451.44;5081147;27;45442;-82
2023/08/19 00:45:54;;;;;;;;;21.75;19.75;;;;;27.34;62.84;100455.94;5090876;27;45291;-82
2023/08/19 00:48:20;;;;;;;;;21.50;18.25;;;;;27.33;63.37;100451.59;5097391;27;59988;-82
2023/08/19 00:50:45;;;;;;;;;22.50;19.00;;;;;27.30;63.18;100444.66;5083508;27;45379;-82
2023/08/19 00:53:12;;;;;;;;;20.75;20.00;;;;;27.30;63.29;100447.34;5100721;27;45321;-82
2023/08/19 00:55:37;;;;;;;;;20.00;17.00;;;;;27.30;63.14;100449.22;5089269;27;55285;-82
2023/08/19 00:58:07;;;;;;;;;20.25;16.50;;;;;27.22;63.43;100445.44;5097634;27;69701;-82
2023/08/19 01:00:33;;;;;;;;;21.25;19.25;;;;;27.27;63.34;100448.53;5098083;27;45429;-81
2023/08/19 01:02:59;;;;;;;;;22.75;21.00;;;;;27.26;62.98;100444.09;5090139;27;45292;-82
2023/08/19 01:05:52;;;;;;;;;18.75;18.25;;;;;27.28;63.27;100443.97;5089991;27;45322;-81
2023/08/19 01:08:22;;;;;;;;;21.50;18.00;;;;;27.24;63.30;100440.75;5106493;27;45558;-81
2023/08/19 01:10:49;;;;;;;;;20.00;17.75;;;;;27.26;62.82;100449.47;5095993;27;45469;-82
2023/08/19 01:13:16;;;;;;;;;21.25;18.75;;;;;27.26;62.93;100446.78;5095748;27;45489;-82
2023/08/19 01:15:50;;;;;;;;;21.50;18.25;;;;;27.23;62.86;100446.25;5096880;27;45232;-82
2023/08/19 01:18:16;;;;;;;;;13.50;13.50;;;;;27.24;62.73;100451.50;5095636;27;45251;-82
2023/08/19 01:20:42;;;;;;;;;19.50;17.25;;;;;27.22;63.10;100456.19;5096913;27;71190;-82
2023/08/19 01:23:30;;;;;;;;;21.50;20.00;;;;;27.24;62.68;100453.34;5090491;27;45431;-82
2023/08/19 01:25:56;;;;;;;;;20.25;20.25;;;;;27.22;63.06;100458.03;5103656;27;45658;-82
2023/08/19 01:28:22;;;;;;;;;22.50;19.25;;;;;27.22;62.95;100461.56;5087365;27;45308;-82
2023/08/19 01:30:47;;;;;;;;;21.25;18.00;;;;;27.22;62.45;100469.63;5083338;27;47118;-82
2023/08/19 01:33:13;;;;;;;;;18.75;16.25;;;;;27.23;62.50;100468.63;5095218;27;45280;-82
2023/08/19 01:35:43;;;;;;;;;17.75;16.00;;;;;27.20;62.77;100468.09;5069806;27;45157;-83
2023/08/19 01:38:12;;;;;;;;;19.00;18.00;;;;;27.19;62.98;100471.78;5096416;27;45312;-82
2023/08/19 01:40:38;;;;;;;;;18.50;16.25;;;;;27.17;62.73;100479.97;5090955;27;47734;-82
2023/08/19 01:43:04;;;;;;;;;24.00;17.00;;;;;27.20;62.70;100478.84;5099365;27;45609;-83
2023/08/19 01:45:30;;;;;;;;;19.50;18.25;;;;;27.16;62.27;100480.13;5089257;27;45271;-83
2023/08/19 01:47:56;;;;;;;;;17.50;15.25;;;;;27.18;61.91;100494.25;5099884;27;45259;-83
2023/08/19 01:50:21;;;;;;;;;19.50;17.25;;;;;27.17;62.29;100500.63;5089374;27;45262;-83
2023/08/19 01:52:47;;;;;;;;;18.25;15.50;;;;;27.16;62.02;100497.13;5087414;27;45382;-83
2023/08/19 01:55:12;;;;;;;;;15.50;14.75;;;;;27.15;60.88;100498.09;5070420;27;45390;-82
2023/08/19 01:57:38;;;;;;;;;15.00;13.50;;;;;27.15;61.21;100494.59;5096948;27;47841;-82
2023/08/19 02:00:05;;;;;;;;;17.75;15.00;;;;;27.14;60.65;100498.25;5106235;27;51135;-83
2023/08/19 02:02:30;;;;;;;;;13.25;13.00;;;;;27.15;60.26;100502.63;5080364;27;45391;-82
2023/08/19 02:04:56;;;;;;;;;15.25;13.75;;;;;27.15;60.78;100503.47;5102963;27;53919;-82
2023/08/19 02:07:21;;;;;;;;;15.00;13.25;;;;;27.12;60.66;100497.56;5108763;27;68117;-82
2023/08/19 02:09:46;;;;;;;;;17.75;15.00;;;;;27.08;60.10;100484.44;5126832;27;71625;-81
2023/08/19 02:12:12;;;;;;;;;16.75;15.25;;;;;27.14;59.89;100504.47;5115869;27;67327;-83
2023/08/19 02:14:38;;;;;;;;;18.00;14.25;;;;;27.09;59.91;100499.56;5101950;27;45229;-83
2023/08/19 02:17:03;;;;;;;;;15.00;12.25;;;;;27.13;59.25;100507.28;5093113;27;45489;-83
2023/08/19 02:19:28;;;;;;;;;12.75;11.25;;;;;27.12;59.40;100508.31;5090955;27;46109;-83
2023/08/19 02:21:54;;;;;;;;;11.00;11.00;;;;;27.13;59.16;100512.66;5088420;27;68932;-82
2023/08/19 02:24:19;;;;;;;;;15.00;13.00;;;;;27.07;58.77;100512.31;5082993;27;45282;-84
2023/08/19 02:26:45;;;;;;;;;14.75;11.00;;;;;27.09;59.36;100521.06;5085459;27;53986;-82
2023/08/19 02:29:10;;;;;;;;;12.00;12.00;;;;;27.09;59.29;100517.50;5089392;27;46457;-82
2023/08/19 02:31:36;;;;;;;;;12.75;12.00;;;;;27.07;58.99;100525.75;5091099;27;57118;-81
2023/08/19 02:34:02;;;;;;;;;15.75;11.50;;;;;27.04;58.95;100511.78;5088791;27;45425;-83
2023/08/19 02:36:27;;;;;;;;;15.00;13.50;;;;;27.06;59.10;100525.91;5086259;27;45615;-83
2023/08/19 02:38:52;;;;;;;;;14.25;13.00;;;;;27.02;59.26;100525.38;5083124;27;67812;-84
2023/08/19 02:41:18;;;;;;;;;14.50;11.50;;;;;27.05;58.44;100537.63;5075699;27;45497;-82
2023/08/19 02:43:43;;;;;;;;;15.25;13.75;;;;;27.01;58.37;100530.88;5094115;27;45479;-82
2023/08/19 02:46:08;;;;;;;;;12.25;12.25;;;;;27.04;58.61;100530.59;5094208;27;45377;-83
2023/08/19 02:48:34;;;;;;;;;11.25;10.25;;;;;27.03;58.35;100537.78;5085307;27;67909;-84
2023/08/19 02:50:59;;;;;;;;;12.50;10.50;;;;;27.00;57.96;100531.88;5092981;27;46446;-83
2023/08/19 02:53:24;;;;;;;;;15.25;10.25;;;;;27.00;58.49;100534.56;5088271;27;66121;-82
2023/08/19 02:55:53;;;;;;;;;16.00;12.00;;;;;27.01;58.21;100541.63;5100874;27;55149;-82
2023/08/19 02:58:18;;;;;;;;;12.50;10.50;;;;;27.00;58.23;100558.72;5091559;27;45449;-83
2023/08/19 03:00:48;;;;;;;;;16.00;13.50;;;;;26.95;58.36;100548.47;5093012;27;45254;-82
2023/08/19 03:03:14;;;;;;;;;12.75;11.25;;;;;26.97;58.74;100559.88;5091060;27;45501;-82
2023/08/19 03:05:39;;;;;;;;;11.25;11.25;;;;;26.97;58.10;100554.53;5095914;27;45369;-83
2023/08/19 03:08:06;;;;;;;;;14.25;14.25;;;;;26.95;58.38;100558.34;5091602;27;46105;-81
2023/08/19 03:10:36;;;;;;;;;16.25;13.00;;;;;26.95;58.74;100563.72;5083792;27;45275;-83
2023/08/19 03:13:02;;;;;;;;;15.25;14.00;;;;;26.93;58.33;100568.38;5086804;27;45496;-83
2023/08/19 03:15:28;;;;;;;;;15.00;12.25;;;;;26.90;58.51;100561.50;5088516;27;45507;-84
2023/08/19 03:17:53;;;;;;;;;16.50;15.75;;;;;26.89;58.50;100566.00;5091288;27;72253;-82
2023/08/19 03:20:19;;;;;;;;;15.25;13.00;;;;;26.89;58.17;100573.22;5104586;27;45311;-82
2023/08/19 03:22:44;;;;;;;;;14.25;12.75;;;;;26.86;58.59;100576.19;5090780;27;45353;-82
2023/08/19 03:25:10;;;;;;;;;16.25;14.00;;;;;26.86;58.45;100577.06;5083069;27;58673;-83
2023/08/19 03:27:35;;;;;;;;;12.25;12.00;;;;;26.85;58.25;100569.16;5084754;27;46397;-82
2023/08/19 03:30:01;;;;;;;;;11.25;11.00;;;;;26.81;58.32;100568.63;5092669;27;64094;-82
2023/08/19 03:32:26;;;;;;;;;17.00;14.50;;;;;26.79;57.89;100567.06;5089483;27;45440;-82
2023/08/19 03:34:51;;;;;;;;;14.25;13.25;;;;;26.78;58.35;100570.75;5098018;27;58447;-82
2023/08/19 03:37:17;;;;;;;;;11.25;10.00;;;;;26.74;57.63;100574.72;5087544;27;65920;-82
2023/08/19 03:39:42;;;;;;;;;13.50;11.50;;;;;26.71;58.08;100565.97;5098476;27;45513;-81
2023/08/19 03:42:07;;;;;;;;;12.25;9.25;;;;;26.74;57.19;100589.00;5077102;27;45464;-83
2023/08/19 03:44:33;;;;;;;;;14.25;10.25;;;;;26.59;57.39;100560.94;5097223;27;70773;-82
2023/08/19 03:46:58;;;;;;;;;9.00;7.00;;;;;26.67;57.67;100586.06;5086473;27;46070;-82
2023/08/19 03:49:24;;;;;;;;;11.50;10.50;;;;;26.67;57.13;100582.56;5095543;27;73646;-83
2023/08/19 03:51:49;;;;;;;;;11.75;11.75;;;;;26.60;57.56;100584.97;5081361;27;61781;-83
2023/08/19 03:54:14;;;;;;;;;8.75;8.00;;;;;26.62;57.14;100599.09;5088936;27;65945;-80
2023/08/19 03:56:40;;;;;;;;;10.75;10.00;;;;;26.61;57.07;100602.75;5089304;27;46138;-82
2023/08/19 03:59:05;;;;;;;;;12.50;10.50;;;;;26.59;56.36;100606.56;5090472;27;65833;-82
2023/08/19 04:01:30;;;;;;;;;14.25;10.50;;;;;26.53;56.78;100614.22;5079231;27;45460;-82
2023/08/19 04:03:56;;;;;;;;;11.50;10.00;;;;;26.52;56.41;100625.97;5076114;27;72883;-83
2023/08/19 04:06:21;;;;;;;;;12.00;9.00;;;;;26.47;56.33;100616.66;5065432;27;47471;-83
2023/08/19 04:08:46;;;;;;;;;8.75;7.50;;;;;26.46;56.00;100628.38;5076017;27;45447;-82
2023/08/19 04:11:12;;;;;;;;;8.00;8.00;;;;;26.43;56.34;100637.56;5087529;27;49667;-83
2023/08/19 04:13:37;;;;;;;;;9.50;9.50;;;;;26.43;56.04;100637.56;5073076;27;66433;-83
2023/08/19 04:16:04;;;;;;;;;9.75;9.75;;;;;26.42;56.14;100635.91;5095584;27;45421;-84
2023/08/19 04:18:30;;;;;;;;;7.00;7.00;;;;;26.37;55.05;100640.84;5092850;27;45856;-83
2023/08/19 04:20:56;;;;;;;;;8.00;7.50;;;;;26.34;55.81;100654.56;5090183;27;45470;-83
2023/08/19 04:23:21;;;;;;;;;9.00;8.00;;;;;26.30;55.03;100643.25;5095034;27;45394;-83
2023/08/19 04:25:46;;;;;;;;;9.00;9.00;;;;;26.27;55.55;100643.56;5085006;27;58173;-84
2023/08/19 04:28:14;;;;;;;;;8.00;8.00;;;;;26.30;55.65;100659.38;5084553;27;66909;-83
2023/08/19 04:30:40;;;;;;;;;8.75;7.75;;;;;26.31;55.53;100663.75;5083002;27;45228;-82
2023/08/19 04:33:05;;;;;;;;;7.75;7.25;;;;;26.28;55.39;100663.19;5095909;27;45283;-83
2023/08/19 04:35:30;;;;;;;;;6.00;6.00;;;;;26.23;55.43;100673.50;5099456;27;45160;-82
2023/08/19 04:37:56;;;;;;;;;7.75;7.50;;;;;26.22;55.19;100677.16;5096844;27;63131;-82
2023/08/19 04:40:21;;;;;;;;;9.00;8.00;;;;;26.18;55.25;100681.97;5111293;27;47960;-83
2023/08/19 04:42:47;;;;;;;;;8.00;7.00;;;;;26.15;55.39;100693.00;5091620;27;61141;-83
2023/08/19 04:45:14;;;;;;;;;10.50;8.25;;;;;26.08;55.14;100683.81;5090014;27;47375;-83
2023/08/19 04:47:39;;;;;;;;;12.25;8.00;;;;;26.07;55.38;100693.72;5096176;27;45362;-83
2023/08/19 04:50:08;;;;;;;;;18.75;17.25;;;;;26.04;55.04;100687.78;5096126;27;45403;-83
2023/08/19 04:52:33;;;;;;;;;8.75;7.00;;;;;26.03;55.27;100694.13;5086442;27;45453;-83
2023/08/19 04:54:59;;;;;;;;;8.25;6.50;;;;;26.01;55.47;100699.66;5106273;27;46582;-83
2023/08/19 04:57:24;;;;;;;;;7.00;7.00;;;;;25.95;55.36;100706.44;5088007;27;56965;-83
2023/08/19 04:59:49;;;;;;;;;10.00;7.75;;;;;25.94;55.13;100707.44;5102078;27;48798;-83
2023/08/19 05:02:15;;;;;;;;;10.00;6.25;;;;;25.94;55.43;100715.47;5090032;27;57855;-83
2023/08/19 05:04:40;;;;;;;;;7.00;6.00;;;;;25.94;55.07;100720.84;5102397;27;70002;-83
2023/08/19 05:07:06;;;;;;;;;7.75;7.25;;;;;25.94;55.11;100719.97;5074905;27;45238;-83
2023/08/19 05:09:31;;;;;;;;;8.00;7.75;;;;;25.89;54.95;100714.19;5085716;27;45275;-83
2023/08/19 05:11:56;;;;;;;;;7.00;5.50;;;;;25.91;55.47;100730.97;5095501;27;59935;-83
2023/08/19 05:14:21;;;;;;;;;6.75;6.00;;;;;25.88;55.41;100718.69;5094847;27;62062;-82
2023/08/19 05:16:47;;;;;;;;;8.00;7.25;;;;;25.89;55.52;100725.75;5093052;27;62658;-83
2023/08/19 05:19:20;;;;;;;;;11.25;9.50;;;;;25.83;55.73;100723.63;5090847;27;52310;-83
2023/08/19 05:21:48;;;;;;;;;5.75;5.75;;;;;25.89;56.03;100728.44;5098953;27;45559;-83
2023/08/19 05:24:13;;;;;;;;;6.50;5.75;;;;;25.89;56.13;100730.28;5095922;27;45342;-83
2023/08/19 05:26:39;;;;;;;;;8.75;8.00;;;;;25.93;55.77;100737.03;5087650;27;45281;-83
2023/08/19 05:29:05;;;;;;;;;7.00;6.00;;;;;25.94;56.27;100736.06;5094924;27;45401;-83
2023/08/19 05:31:31;;;;;;;;;8.50;5.50;;;;;25.97;56.09;100740.31;5089990;27;45374;-83
2023/08/19 05:33:56;;;;;;;;;11.00;10.00;;;;;25.95;55.90;100748.50;5090528;27;46376;-83
2023/08/19 05:36:22;;;;;;;;;7.00;7.00;;;;;25.95;56.12;100748.50;5081618;27;67373;-83
2023/08/19 05:38:47;;;;;;;;;6.75;5.75;;;;;25.98;55.60;100756.25;5103560;27;45219;-84
2023/08/19 05:41:13;;;;;;;;;8.00;4.50;;;;;25.98;55.96;100747.38;5098717;27;70844;-83
2023/08/19 05:43:38;;;;;;;;;7.25;4.00;;;;;25.97;55.24;100759.09;5082203;27;45299;-83
2023/08/19 05:46:05;;;;;;;;;6.25;4.00;;;;;25.94;55.68;100766.41;5078540;27;45553;-83
2023/08/19 05:48:31;;;;;;;;;3.75;3.25;;;;;25.91;55.50;100772.03;5088585;27;45257;-83
2023/08/19 05:50:56;;;;;;;;;3.25;3.25;;;;;25.88;55.70;100763.41;5095898;27;45603;-83
2023/08/19 05:53:21;;;;;;;;;5.00;3.00;;;;;25.85;55.71;100769.06;5105617;27;45441;-82
2023/08/19 05:55:47;;;;;;;;;2.50;2.25;;;;;25.85;55.03;100775.28;5106178;27;48755;-83
2023/08/19 05:58:13;;;;;;;;;3.75;2.00;;;;;25.81;55.66;100768.50;5085426;27;45447;-83
2023/08/19 06:00:38;;;;;;;;;4.00;2.00;;;;;25.82;55.24;100772.03;5096493;27;45527;-81
2023/08/19 06:03:04;;;;;;;;;4.25;2.75;;;;;25.81;55.26;100762.28;5100307;27;60598;-82
2023/08/19 06:05:29;;;;;;;;;4.00;3.75;;;;;25.80;55.48;100774.84;5086889;27;45393;-82
2023/08/19 06:07:54;;;;;;;;;3.00;3.00;;;;;25.76;55.40;100768.91;5093187;27;54383;-82
2023/08/19 06:10:20;;;;;;;;;3.25;2.25;;;;;25.83;55.52;100784.44;5103997;27;65963;-82
2023/08/19 06:12:45;;;;;;;;;4.50;3.00;;;;;25.84;55.77;100781.63;5117782;27;45270;-82
2023/08/19 06:15:11;;;;;;;;;4.00;3.00;;;;;25.84;55.34;100778.94;5115139;27;70931;-82
2023/08/19 06:17:36;;;;;;;;;6.00;4.50;;;;;25.89;55.45;100787.41;5119004;27;44909;-82
2023/08/19 06:20:02;;;;;;;;;1.75;1.75;;;;;25.92;55.11;100799.69;5107692;27;45634;-82
2023/08/19 06:22:27;;;;;;;;;7.25;5.25;;;;;25.93;55.53;100802.25;5105034;27;46496;-84
2023/08/19 06:24:52;;;;;;;;;5.75;4.50;;;;;25.98;55.14;100814.41;5091379;27;68887;-83
2023/08/19 06:27:18;;;;;;;;;5.00;5.00;;;;;25.98;55.11;100817.09;5100239;27;49805;-83
2023/08/19 06:29:43;;;;;;;;;5.25;5.00;;;;;25.97;54.66;100818.06;5103798;27;45567;-83
2023/08/19 06:32:09;;;;;;;;;7.00;5.00;;;;;25.97;54.99;100829.63;5097714;27;47453;-83
2023/08/19 06:34:35;;;;;;;;;7.00;4.00;;;;;25.97;55.08;100836.84;5093077;27;45255;-83
2023/08/19 06:37:01;;;;;;;;;5.00;3.00;;;;;25.94;55.58;100835.28;5093991;27;45291;-82
2023/08/19 06:39:27;;;;;;;;;4.75;4.00;;;;;25.97;55.34;100847.56;5092431;27;45579;-83
2023/08/19 06:42:01;;;;;;;;;8.00;6.25;;;;;25.95;55.38;100855.75;5085531;27;45552;-83
2023/08/19 06:44:31;;;;;;;;;6.00;5.00;;;;;25.94;55.58;100849.56;5094135;27;45474;-83
2023/08/19 06:46:57;;;;;;;;;5.00;5.00;;;;;25.97;55.39;100856.47;5084972;27;45275;-82
2023/08/19 06:49:23;;;;;;;;;5.50;5.50;;;;;25.95;54.93;100859.28;5085201;27;45400;-83
2023/08/19 06:51:49;;;;;;;;;7.00;6.00;;;;;25.90;54.86;100866.00;5070057;27;48199;-83
2023/08/19 06:54:15;;;;;;;;;8.50;5.00;;;;;25.88;55.14;100852.75;5083420;27;45752;-82
2023/08/19 06:56:51;;;;;;;;;4.00;4.00;;;;;25.89;54.80;100865.16;5076348;27;45449;-82
2023/08/19 06:59:21;;;;;;;;;3.75;3.75;;;;;25.88;55.00;100871.50;5063456;28;45512;-83
2023/08/19 07:01:51;;;;;;;;;3.75;3.00;;;;;25.87;55.09;100877.00;5081403;27;46260;-83
2023/08/19 07:04:22;;;;;;;;;7.00;6.00;;;;;25.82;55.19;100880.13;5079522;27;45739;-83
2023/08/19 07:06:49;;;;;;;;;4.00;3.00;;;;;25.76;54.99;100865.44;5092907;27;45243;-83
2023/08/19 07:09:14;;;;;;;;;7.00;5.50;;;;;25.79;55.49;100885.75;5067904;27;45495;-83
2023/08/19 07:11:40;;;;;;;;;5.00;5.00;;;;;25.75;55.61;100879.81;5082041;28;46209;-83
2023/08/19 07:14:06;;;;;;;;;4.50;4.50;;;;;25.74;55.08;100886.13;5083368;27;45367;-82
2023/08/19 07:16:33;;;;;;;;;5.50;4.75;;;;;25.70;54.81;100881.22;5084987;27;45295;-82
2023/08/19 07:19:02;;;;;;;;;4.50;4.50;;;;;25.72;54.61;100873.88;5100310;27;46413;-82
2023/08/19 07:21:28;;;;;;;;;5.00;4.00;;;;;25.77;55.47;100874.31;5100490;27;47362;-83
2023/08/19 07:23:58;;;;;;;;;7.50;5.50;;;;;25.84;55.06;100867.41;5096441;27;63943;-82
2023/08/19 07:26:25;;;;;;;;;4.00;4.00;;;;;25.97;55.19;100863.66;5083569;27;45473;-83
2023/08/19 07:28:51;;;;;;;;;6.50;5.00;;;;;26.06;54.47;100877.06;5099868;27;45509;-82
2023/08/19 07:31:17;;;;;;;;;6.75;4.50;;;;;26.13;54.27;100869.31;5055714;28;46640;-83
2023/08/19 07:33:42;;;;;;;;;5.00;4.75;;;;;26.25;54.49;100878.94;5092807;27;45535;-83
2023/08/19 07:36:07;;;;;;;;;6.00;4.50;;;;;26.37;54.43;100887.72;5081673;27;45417;-82
2023/08/19 07:38:33;;;;;;;;;5.50;5.00;;;;;26.45;54.29;100892.38;5087627;27;47851;-83
2023/08/19 07:41:09;;;;;;;;;6.25;3.50;;;;;26.49;54.15;100907.22;5083315;27;47000;-82
2023/08/19 07:43:35;;;;;;;;;5.25;4.00;;;;;26.57;53.91;100922.59;5072108;27;46915;-81
2023/08/19 07:46:00;;;;;;;;;4.00;3.50;;;;;26.56;53.54;100937.00;5099876;27;45562;-83
2023/08/19 07:48:40;;;;;;;;;6.00;4.00;;;;;26.55;53.50;100930.78;5083046;27;45422;-83
2023/08/19 07:51:06;;;;;;;;;6.75;5.00;;;;;26.34;53.88;100890.66;5081529;27;45448;-82
2023/08/19 07:53:31;;;;;;;;;6.00;4.25;;;;;26.32;54.31;100890.81;5088715;27;51241;-82
2023/08/19 07:55:56;;;;;;;;;6.75;4.50;;;;;26.44;54.11;100913.00;5083830;27;59868;-83
2023/08/19 07:58:22;;;;;;;;;6.25;5.00;;;;;26.32;54.40;100919.47;5088057;27;63345;-83
2023/08/19 08:00:47;;;;;;;;;6.25;5.75;;;;;26.26;54.04;100955.78;5080793;27;71459;-83
2023/08/19 08:03:13;;;;;;;;;4.75;3.50;;;;;26.21;54.33;100976.78;5086841;27;45269;-82
2023/08/19 08:05:38;;;;;;;;;7.00;4.00;;;;;26.13;54.70;100992.72;5083237;27;65199;-82
2023/08/19 08:08:04;;;;;;;;;5.25;4.25;;;;;26.02;54.34;100982.09;5100171;27;53110;-81
2023/08/19 08:10:29;;;;;;;;;5.00;5.00;;;;;25.91;54.26;100978.50;5088884;27;45428;-82
2023/08/19 08:12:54;;;;;;;;;6.75;3.75;;;;;25.88;54.90;100985.97;5069018;27;67061;-82
2023/08/19 08:15:21;;;;;;;;;4.25;4.00;;;;;25.85;55.03;100999.63;5073004;27;45295;-82
2023/08/19 08:17:46;;;;;;;;;2.25;2.25;;;;;25.79;55.12;101032.34;5082336;27;45263;-83
2023/08/19 08:20:11;;;;;;;;;1.75;1.75;;;;;25.70;55.42;101060.81;5069665;27;47023;-83
2023/08/19 08:22:37;;;;;;;;;3.50;2.75;;;;;25.61;56.58;101078.53;5075769;27;54294;-83
2023/08/19 08:25:04;;;;;;;;;4.50;4.00;;;;;25.51;57.56;101086.47;5073924;27;45289;-83
2023/08/19 08:27:30;;;;;;;;;4.50;3.00;;;;;25.38;56.95;101059.88;5099025;27;45355;-83
2023/08/19 08:29:55;;;;;;;;;2.75;2.75;;;;;25.28;57.75;101045.56;5099843;27;47227;-83
2023/08/19 08:32:21;;;;;;;;;4.50;3.00;;;;;25.26;58.71;101060.91;5092876;27;45420;-85
2023/08/19 08:34:46;;;;;;;;;3.75;2.00;;;;;25.18;58.14;101058.88;5063857;27;45359;-83
2023/08/19 08:37:12;;;;;;;;;6.75;4.00;;;;;25.14;58.39;101041.34;5097180;27;46751;-84
2023/08/19 08:39:37;;;;;;;;;3.25;3.25;;;;;25.12;59.07;101024.53;5098842;27;45429;-83
2023/08/19 08:42:03;;;;;;;;;4.50;3.75;;;;;25.09;59.46;101048.06;5096806;27;71850;-83
2023/08/19 08:44:30;;;;;;;;;6.00;5.00;;;;;25.08;59.82;101047.22;5096836;27;45440;-83
2023/08/19 08:46:56;;;;;;;;;7.25;5.25;;;;;25.05;59.06;101041.25;5065430;27;45374;-83
2023/08/19 08:49:23;;;;;;;;;5.75;4.75;;;;;24.99;59.43;101022.06;5086817;27;46459;-83
2023/08/19 08:51:48;;;;;;;;;3.25;3.00;;;;;25.00;60.06;101055.03;5091560;27;45357;-82
2023/08/19 08:54:15;;;;;;;;;4.50;4.50;;;;;24.95;59.97;101060.78;5091302;27;63479;-83
2023/08/19 08:56:40;;;;;;;;;4.50;4.25;;;;;25.02;60.09;101080.72;5088039;27;69021;-82
2023/08/19 08:59:05;;;;;;;;;6.00;6.00;;;;;25.06;59.98;101075.94;5087330;27;70020;-83
2023/08/19 09:01:32;;;;;;;;;3.25;3.25;;;;;25.08;59.80;101078.50;5088063;27;45322;-84
2023/08/19 09:04:03;;;;;;;;;6.50;4.00;;;;;25.12;59.54;101078.09;5079641;27;47943;-83
2023/08/19 09:06:28;;;;;;;;;3.50;3.25;;;;;25.07;59.63;101037.47;5090113;27;45430;-82
2023/08/19 09:09:02;;;;;;;;;3.50;3.50;;;;;25.00;59.74;101012.19;5101081;27;71236;-83
2023/08/19 09:11:28;;;;;;;;;5.25;4.75;;;;;25.05;59.93;101074.25;5093688;27;45433;-82
2023/08/19 09:14:30;;;;;;;;;4.25;3.75;;;;;25.02;59.89;101061.13;5077501;27;45307;-83
2023/08/19 09:16:56;;;;;;;;;5.00;4.50;;;;;24.96;59.86;101064.28;5077332;27;46182;-82
2023/08/19 09:19:21;;;;;;;;;3.50;3.50;;;;;24.94;59.65;101104.56;5102140;27;46190;-82
2023/08/19 09:21:46;;;;;;;;;5.00;4.50;;;;;24.88;60.41;101107.78;5103277;27;54204;-82
2023/08/19 09:24:16;;;;;;;;;5.25;3.50;;;;;24.88;60.23;101109.56;5078564;27;64953;-83
2023/08/19 09:26:41;;;;;;;;;6.00;4.50;;;;;24.87;60.47;101095.34;5086817;27;45773;-82
2023/08/19 09:29:07;;;;;;;;;8.25;5.25;;;;;24.85;60.12;101120.56;5089743;27;50416;-82
2023/08/19 09:31:32;;;;;;;;;6.00;5.25;;;;;24.83;60.64;101136.75;5101975;27;45359;-82
2023/08/19 09:33:59;;;;;;;;;9.25;7.50;;;;;24.80;61.33;101164.59;5092463;27;45291;-83
2023/08/19 09:36:25;;;;;;;;;8.75;4.25;;;;;24.77;61.85;101148.81;5073996;27;45489;-82
2023/08/19 09:38:55;;;;;;;;;5.75;4.00;;;;;24.76;61.49;101154.28;5094341;27;46440;-83
2023/08/19 09:41:25;;;;;;;;;6.25;4.50;;;;;24.72;61.30;101180.44;5089321;27;45363;-83
2023/08/19 09:43:50;;;;;;;;;4.00;4.00;;;;;24.68;61.80;101194.19;5070323;28;45367;-83
2023/08/19 09:46:16;;;;;;;;;8.50;4.00;;;;;24.63;62.12;101157.09;5079442;27;52188;-82
2023/08/19 09:48:52;;;;;;;;;6.75;4.25;;;;;24.57;62.37;101131.66;5095612;27;45214;-83
2023/08/19 09:51:24;;;;;;;;;2.50;1.50;;;;;24.57;62.26;101153.06;5098985;27;45636;-82
2023/08/19 09:53:50;;;;;;;;;3.25;3.00;;;;;24.53;62.62;101164.13;5068952;27;45300;-83
2023/08/19 09:56:21;;;;;;;;;5.25;4.00;;;;;24.50;62.39;101169.69;5085448;27;45320;-84
2023/08/19 09:58:48;;;;;;;;;9.25;6.50;;;;;24.48;63.85;101198.41;5088383;27;45366;-83
2023/08/19 10:01:14;;;;;;;;;7.00;5.50;;;;;24.42;62.87;101184.53;5090153;27;45624;-83
2023/08/19 10:03:39;;;;;;;;;6.25;3.00;;;;;24.38;63.48;101187.56;5101918;27;56156;-83
2023/08/19 10:06:05;;;;;;;;;8.50;6.00;;;;;24.30;63.50;101185.50;5088278;27;71470;-83
2023/08/19 10:08:32;;;;;;;;;8.25;5.25;;;;;24.28;63.80;101183.91;5101849;27;45394;-83
2023/08/19 10:10:59;;;;;;;;;5.00;5.00;;;;;24.24;63.98;101180.59;5096135;27;46067;-83
2023/08/19 10:13:26;;;;;;;;;5.75;4.25;;;;;24.16;64.21;101172.34;5084060;27;54811;-83
2023/08/19 10:15:51;;;;;;;;;4.00;4.00;;;;;24.14;64.76;101135.03;5086262;27;45579;-83
2023/08/19 10:18:20;;;;;;;;;9.25;5.25;;;;;24.13;65.26;101165.41;5094201;27;49271;-84
2023/08/19 10:20:55;;;;;;;;;7.25;6.00;;;;;24.10;66.62;101199.53;5097003;27;45262;-83
2023/08/19 10:23:22;;;;;;;;;6.25;5.00;;;;;24.01;66.13;101172.56;5090118;27;45175;-82
2023/08/19 10:25:48;;;;;;;;;9.00;5.25;;;;;24.12;65.78;101166.38;5076925;27;45481;-83
2023/08/19 10:28:23;;;;;;;;;6.00;6.00;;;;;24.21;65.74;101167.50;5101095;27;48314;-82
2023/08/19 10:31:07;;;;;;;;;8.50;7.00;;;;;24.40;65.47;101174.91;5115461;27;44917;-81
2023/08/19 10:33:37;;;;;;;;;7.50;5.25;;;;;24.55;65.25;101175.56;5102213;27;45511;-80
2023/08/19 10:36:07;;;;;;;;;4.75;4.00;;;;;24.67;64.91;101181.78;5112686;27;45243;-80
2023/08/19 10:38:46;;;;;;;;;4.75;4.50;;;;;24.70;65.14;101187.75;5113881;27;46365;-81
2023/08/19 10:41:20;;;;;;;;;5.50;5.50;;;;;24.68;64.77;101189.66;5103827;27;45319;-81
2023/08/19 10:44:27;;;;;;;;;8.00;7.00;;;;;24.67;64.90;101189.81;5097040;27;45574;-81
2023/08/19 10:47:07;;;;;;;;;7.75;5.25;;;;;24.71;65.33;101192.09;5095827;27;45208;-81
2023/08/19 10:49:36;;;;;;;;;5.25;5.00;;;;;24.75;65.16;101192.72;5095332;27;45446;-80
2023/08/19 10:52:03;;;;;;;;;4.75;4.50;;;;;24.69;64.70;101179.84;5090346;27;45330;-81
2023/08/19 10:54:38;;;;;;;;;5.00;4.00;;;;;24.72;64.17;101183.13;5090601;27;45338;-81
2023/08/19 10:57:12;;;;;;;;;4.25;4.25;;;;;24.70;63.93;101185.06;5100421;27;45729;-82
2023/08/19 10:59:40;;;;;;;;;4.25;4.00;;;;;24.66;64.12;101175.56;5087738;27;45264;-82
2023/08/19 11:02:07;;;;;;;;;5.00;4.00;;;;;24.67;62.88;101181.78;5087846;27;45415;-82
2023/08/19 11:04:43;;;;;;;;;2.00;2.00;;;;;24.72;62.39;101177.75;5097141;27;45431;-82
2023/08/19 11:07:09;;;;;;;;;4.50;1.25;;;;;24.81;62.40;101182.38;5084834;27;45411;-82
2023/08/19 11:09:36;;;;;;;;;4.00;3.00;;;;;24.96;62.12;101185.63;5101574;27;45422;-82
2023/08/19 11:12:02;;;;;;;;;4.00;4.00;;;;;25.16;60.43;101185.84;5090204;27;45382;-82
2023/08/19 11:14:28;;;;;;;;;1.50;1.00;;;;;25.40;59.98;101185.69;5093898;27;45453;-81
2023/08/19 11:16:54;;;;;;;;;3.25;2.00;;;;;25.60;59.04;101183.19;5094091;27;61319;-82
2023/08/19 11:19:20;;;;;;;;;3.75;1.00;;;;;25.72;57.01;101190.19;5090337;27;46161;-82